CheckWX is a tool to help pilots better visualize weather data.  It is not intended as a substitute for an official pre-flight weather briefing.

12:49:55 UTC

KFDW METAR
Fairfield County Airport
Winnsboro, South Carolina, USA
Current

15 mins ago

KFDW 221235Z AUTO 03008G19KT 5SM BR OVC004 10/10 A3022 RMK AO1
Observed
Feb-22 @ 12:35 UTC
Wind
  • 030° at 8 KTS
  • Gusting to KTS
Visibility
5 SM
Flight Rules
LIFR
Conditions
Mist
Cloud Levels
  • Overcast at 400' AGL
Temperature
10°C / 50°F
Dewpoint
10°C / 50°F
Humidity
100%
Altimeter
30.22" Hg
Pressure
1023.42 hPa
Previous

35 mins ago

KFDW 221215Z AUTO 03009KT 4SM BR OVC004 10/10 A3021 RMK AO1
Observed
Feb-22 @ 12:15 UTC
Wind
  • 030° at 9 KTS
Visibility
4 SM
Flight Rules
LIFR
Conditions
Mist
Cloud Levels
  • Overcast at 400' AGL
Temperature
10°C / 50°F
Dewpoint
10°C / 50°F
Humidity
100%
Altimeter
30.21" Hg
Pressure
1023.02 hPa
Previous

55 mins ago

KFDW 221155Z AUTO 03008G15KT 014V074 4SM -DZ OVC004 12/11 A3020 RMK AO1
Observed
Feb-22 @ 11:55 UTC
Wind
  • 030° at 8 KTS
  • Gusting to KTS
Visibility
4 SM
Flight Rules
LIFR
Conditions
Light Drizzle
Cloud Levels
  • Overcast at 400' AGL
Temperature
12°C / 54°F
Dewpoint
11°C / 52°F
Humidity
94%
Altimeter
30.2" Hg
Pressure
1022.72 hPa